Time;durP1;ratioP1;P1;durP2;ratioP2;P2;SDS_P1;SDS_P2;PMS_P1;PMS_P2;Temp;Humidity;BMP_temperature;BMP_pressure;BME280_temperature;BME280_humidity;BME280_pressure;Samples;Min_cycle;Max_cycle;Signal;HPM_P1;HPM_P2
2021/10/18 00:01:25;;;;;;;;;;;;;;;7.43;83.69;97073.47;5074288;28;19956;-75
2021/10/18 00:03:51;;;;;;;;;;;;;;;7.37;83.99;97067.19;5074188;28;20055;-74
2021/10/18 00:06:16;;;;;;;;;;;;;;;7.34;83.87;97066.75;5074269;28;20370;-76
2021/10/18 00:08:42;;;;;;;;;;;;;;;7.31;83.87;97075.75;5074179;28;19976;-74
2021/10/18 00:11:08;;;;;;;;;;;;;;;7.29;83.69;97075.13;5074133;28;19951;-75
2021/10/18 00:13:34;;;;;;;;;;;;;;;7.25;83.63;97079.06;5074073;28;19965;-76
2021/10/18 00:16:00;;;;;;;;;;;;;;;7.22;84.25;97090.66;5074304;28;20416;-76
2021/10/18 00:18:26;;;;;;;;;;;;;;;7.20;84.86;97090.06;5072727;28;19962;-75
2021/10/18 00:20:52;;;;;;;;;;;;;;;7.17;84.78;97085.19;5074656;28;19965;-75
2021/10/18 00:23:19;;;;;;;;;;;;;;;7.15;84.51;97097.59;5074083;28;19959;-75
2021/10/18 00:25:45;;;;;;;;;;;;;;;7.13;84.32;97098.78;5074012;28;19958;-76
2021/10/18 00:28:11;;;;;;;;;;;;;;;7.11;84.38;97093.72;5074074;28;19972;-75
2021/10/18 00:30:37;;;;;;;;;;;;;;;7.06;84.21;97096.06;5073841;28;19963;-77
2021/10/18 00:33:03;;;;;;;;;;;;;;;7.05;84.19;97094.44;5074091;28;20006;-78
2021/10/18 00:35:29;;;;;;;;;;;;;;;7.02;84.02;97102.66;5073721;28;20411;-76
2021/10/18 00:37:55;;;;;;;;;;;;;;;7.01;83.70;97106.22;5074437;28;19958;-76
2021/10/18 00:40:21;;;;;;;;;;;;;;;6.98;83.75;97103.97;5073894;28;20003;-76
2021/10/18 00:42:49;;;;;;;;;;;;;;;6.95;83.79;97099.94;5073969;28;19957;-74
2021/10/18 00:45:15;;;;;;;;;;;;;;;6.94;83.88;97090.50;5073884;28;19951;-76
2021/10/18 00:47:41;;;;;;;;;;;;;;;6.92;84.11;97095.06;5073583;28;20056;-77
2021/10/18 00:50:08;;;;;;;;;;;;;;;6.90;84.19;97097.03;5073939;28;19953;-75
2021/10/18 00:52:35;;;;;;;;;;;;;;;6.88;84.18;97093.81;5073586;28;19988;-75
2021/10/18 00:55:02;;;;;;;;;;;;;;;6.87;84.19;97093.00;5074276;28;19970;-76
2021/10/18 00:57:28;;;;;;;;;;;;;;;6.83;84.35;97091.75;5073635;28;20342;-76
2021/10/18 00:59:55;;;;;;;;;;;;;;;6.81;84.45;97091.09;5073740;28;19962;-75
2021/10/18 01:02:21;;;;;;;;;;;;;;;6.81;84.52;97098.13;5073492;28;19982;-75
2021/10/18 01:04:47;;;;;;;;;;;;;;;6.80;84.97;97099.91;5073590;28;19952;-74
2021/10/18 01:07:13;;;;;;;;;;;;;;;6.80;85.18;97105.09;5073567;28;20526;-75
2021/10/18 01:09:40;;;;;;;;;;;;;;;6.79;85.23;97111.31;5073483;28;19956;-76
2021/10/18 01:12:06;;;;;;;;;;;;;;;6.85;93.20;97102.81;5073603;28;19950;-75
2021/10/18 01:14:31;;;;;;;;;;;;;;;7.06;93.28;97104.72;5073519;28;19958;-76
2021/10/18 01:16:57;;;;;;;;;;;;;;;7.13;87.67;97106.59;5073666;28;20052;-75
2021/10/18 01:19:23;;;;;;;;;;;;;;;7.11;86.23;97104.16;5073363;28;19962;-77
2021/10/18 01:21:50;;;;;;;;;;;;;;;7.08;85.74;97109.75;5073524;28;19988;-77
2021/10/18 01:24:16;;;;;;;;;;;;;;;7.04;85.63;97109.28;5073686;28;19956;-77
2021/10/18 01:26:42;;;;;;;;;;;;;;;7.01;85.77;97107.03;5073693;28;19964;-77
2021/10/18 01:29:08;;;;;;;;;;;;;;;6.98;86.08;97107.41;5073428;28;19996;-77
2021/10/18 01:31:34;;;;;;;;;;;;;;;6.96;86.34;97111.19;5077515;28;20009;-77
2021/10/18 01:34:00;;;;;;;;;;;;;;;6.94;86.42;97102.72;5077116;28;19951;-77
2021/10/18 01:36:26;;;;;;;;;;;;;;;6.93;86.65;97095.88;5077504;28;19957;-77
2021/10/18 01:38:51;;;;;;;;;;;;;;;6.93;86.86;97103.69;5077123;28;19952;-77
2021/10/18 01:41:17;;;;;;;;;;;;;;;6.93;87.17;97101.91;5077084;28;19954;-77
2021/10/18 01:43:43;;;;;;;;;;;;;;;6.93;87.15;97111.50;5077311;28;19988;-77
2021/10/18 01:46:09;;;;;;;;;;;;;;;6.93;87.35;97104.53;5077016;28;19960;-77
2021/10/18 01:48:35;;;;;;;;;;;;;;;6.95;87.09;97096.50;5067668;28;19973;-77
2021/10/18 01:51:01;;;;;;;;;;;;;;;6.95;87.32;97096.50;5076959;28;19964;-77
2021/10/18 01:53:27;;;;;;;;;;;;;;;6.96;87.00;97095.53;5077084;28;20078;-77
2021/10/18 01:55:53;;;;;;;;;;;;;;;6.96;87.06;97101.53;5076983;28;19967;-77
2021/10/18 01:58:19;;;;;;;;;;;;;;;6.96;87.11;97104.16;5076808;28;20480;-77
2021/10/18 02:00:44;;;;;;;;;;;;;;;6.97;87.04;97105.78;5076917;28;19958;-77
2021/10/18 02:03:10;;;;;;;;;;;;;;;6.97;87.15;97103.19;5076578;28;20021;-77
2021/10/18 02:05:37;;;;;;;;;;;;;;;6.97;87.18;97099.75;5077047;28;20000;-77
2021/10/18 02:08:03;;;;;;;;;;;;;;;6.95;87.23;97099.94;5076704;28;19963;-77
2021/10/18 02:10:29;;;;;;;;;;;;;;;6.96;87.07;97104.16;5076625;28;19965;-77
2021/10/18 02:12:55;;;;;;;;;;;;;;;6.97;86.88;97108.41;5076367;28;19953;-77
2021/10/18 02:15:21;;;;;;;;;;;;;;;6.98;86.92;97103.97;5076751;28;20304;-77
2021/10/18 02:17:47;;;;;;;;;;;;;;;6.99;86.92;97102.97;5076246;28;20052;-77
2021/10/18 02:20:14;;;;;;;;;;;;;;;6.99;86.92;97105.59;5076098;28;19992;-77
2021/10/18 02:22:41;;;;;;;;;;;;;;;7.00;86.88;97100.19;5075110;28;20410;-77
2021/10/18 02:25:08;;;;;;;;;;;;;;;7.00;86.89;97097.59;5076154;28;19953;-77
2021/10/18 02:27:35;;;;;;;;;;;;;;;6.99;86.80;97093.38;5076266;28;19990;-77
2021/10/18 02:30:03;;;;;;;;;;;;;;;7.01;86.81;97086.16;5076206;28;19978;-77
2021/10/18 02:32:29;;;;;;;;;;;;;;;7.01;87.02;97087.97;5076117;28;19967;-77
2021/10/18 02:34:55;;;;;;;;;;;;;;;7.02;86.92;97095.63;5076316;28;20504;-77
2021/10/18 02:37:21;;;;;;;;;;;;;;;7.04;86.95;97090.22;5076186;28;19971;-77
2021/10/18 02:39:47;;;;;;;;;;;;;;;7.03;87.00;97080.78;5075914;28;19952;-78
2021/10/18 02:42:13;;;;;;;;;;;;;;;7.04;87.20;97083.22;5075048;28;20334;-74
2021/10/18 02:44:39;;;;;;;;;;;;;;;7.02;87.13;97079.16;5075807;28;19954;-75
2021/10/18 02:47:07;;;;;;;;;;;;;;;7.01;87.23;97086.16;5076275;28;19955;-75
2021/10/18 02:49:32;;;;;;;;;;;;;;;7.02;87.22;97084.38;5075755;28;19973;-78
2021/10/18 02:51:58;;;;;;;;;;;;;;;7.03;87.38;97088.59;5075911;28;20030;-78
2021/10/18 02:54:24;;;;;;;;;;;;;;;7.04;87.53;97087.63;5075472;28;19985;-78
2021/10/18 02:56:50;;;;;;;;;;;;;;;7.06;87.34;97091.66;5075830;28;19961;-78
2021/10/18 02:59:16;;;;;;;;;;;;;;;7.08;87.29;97094.09;5075545;28;20009;-76
2021/10/18 03:01:42;;;;;;;;;;;;;;;7.10;87.25;97094.72;5075564;28;19985;-77
2021/10/18 03:04:08;;;;;;;;;;;;;;;7.10;87.22;97103.34;5076333;28;19981;-76
2021/10/18 03:06:34;;;;;;;;;;;;;;;7.11;87.40;97097.13;5074574;28;20367;-76
2021/10/18 03:09:00;;;;;;;;;;;;;;;7.12;87.44;97105.81;5075361;28;20022;-76
2021/10/18 03:11:26;;;;;;;;;;;;;;;7.10;87.30;97100.75;5075345;28;19955;-75
2021/10/18 03:13:52;;;;;;;;;;;;;;;7.04;87.44;97095.44;5075437;28;19976;-77
2021/10/18 03:16:18;;;;;;;;;;;;;;;7.03;87.76;97099.84;5075255;28;20032;-74
2021/10/18 03:18:44;;;;;;;;;;;;;;;7.00;87.65;97102.81;5075518;28;20336;-76
2021/10/18 03:21:10;;;;;;;;;;;;;;;7.01;87.82;97096.59;5075113;28;19957;-76
2021/10/18 03:23:36;;;;;;;;;;;;;;;7.04;87.89;97098.06;5075351;28;20342;-76
2021/10/18 03:26:02;;;;;;;;;;;;;;;7.05;88.36;97102.28;5075138;28;19959;-77
2021/10/18 03:28:28;;;;;;;;;;;;;;;7.03;88.04;97102.44;5074953;28;20328;-76
2021/10/18 03:30:54;;;;;;;;;;;;;;;7.04;87.86;97098.06;5075038;28;20040;-76
2021/10/18 03:33:20;;;;;;;;;;;;;;;7.05;88.19;97117.91;5075041;28;19979;-76
2021/10/18 03:35:46;;;;;;;;;;;;;;;7.04;88.28;97117.13;5074939;28;19990;-76
2021/10/18 03:38:12;;;;;;;;;;;;;;;7.05;88.14;97121.31;5074781;28;19961;-76
2021/10/18 03:40:38;;;;;;;;;;;;;;;7.07;88.02;97121.97;5075249;28;19992;-76
2021/10/18 03:43:04;;;;;;;;;;;;;;;7.09;87.96;97127.00;5075107;28;19956;-76
2021/10/18 03:45:30;;;;;;;;;;;;;;;7.10;88.17;97132.06;5075431;28;20483;-76
2021/10/18 03:47:56;;;;;;;;;;;;;;;7.10;88.36;97133.84;5074558;28;19965;-76
2021/10/18 03:50:22;;;;;;;;;;;;;;;7.10;88.03;97132.06;5074410;28;19960;-76
2021/10/18 03:52:48;;;;;;;;;;;;;;;7.10;88.13;97136.47;5074459;28;19983;-77
2021/10/18 03:55:14;;;;;;;;;;;;;;;7.10;87.97;97142.47;5074451;28;20393;-76
2021/10/18 03:57:40;;;;;;;;;;;;;;;7.10;88.07;97134.66;5075037;28;19957;-76
2021/10/18 04:00:07;;;;;;;;;;;;;;;7.11;88.09;97146.69;5074372;28;19993;-76
2021/10/18 04:02:33;;;;;;;;;;;;;;;7.11;88.20;97138.88;5074849;28;19949;-76
2021/10/18 04:04:59;;;;;;;;;;;;;;;7.09;88.32;97146.06;5074466;28;19959;-76
2021/10/18 04:07:25;;;;;;;;;;;;;;;7.09;88.29;97145.25;5074260;28;20342;-76
2021/10/18 04:09:50;;;;;;;;;;;;;;;7.10;88.31;97139.06;5074334;28;20006;-76
2021/10/18 04:12:16;;;;;;;;;;;;;;;7.10;88.30;97145.09;5074307;28;19986;-76
2021/10/18 04:14:42;;;;;;;;;;;;;;;7.12;88.21;97152.75;5074251;28;19960;-76
2021/10/18 04:17:08;;;;;;;;;;;;;;;7.15;88.27;97147.16;5074135;28;19957;-76
2021/10/18 04:19:34;;;;;;;;;;;;;;;7.17;88.04;97152.22;5074474;28;19967;-76
2021/10/18 04:22:00;;;;;;;;;;;;;;;7.16;87.83;97153.19;5074104;28;19962;-75
2021/10/18 04:24:26;;;;;;;;;;;;;;;7.16;87.73;97153.19;5073862;28;19968;-75
2021/10/18 04:26:52;;;;;;;;;;;;;;;7.16;87.74;97150.56;5074091;28;19986;-75
2021/10/18 04:29:18;;;;;;;;;;;;;;;7.13;88.05;97154.34;5073817;28;20428;-75
2021/10/18 04:31:43;;;;;;;;;;;;;;;7.07;87.74;97161.09;5073200;28;19980;-75
2021/10/18 04:34:09;;;;;;;;;;;;;;;7.03;88.00;97165.03;5074074;28;19965;-75
2021/10/18 04:36:35;;;;;;;;;;;;;;;7.03;88.44;97170.25;5073881;28;20391;-75
2021/10/18 04:39:02;;;;;;;;;;;;;;;7.04;88.25;97174.50;5073651;28;20050;-75
2021/10/18 04:41:28;;;;;;;;;;;;;;;7.04;88.17;97169.28;5074120;28;19965;-76
2021/10/18 04:43:54;;;;;;;;;;;;;;;7.06;88.02;97169.09;5073930;28;19949;-75
2021/10/18 04:46:20;;;;;;;;;;;;;;;7.06;88.10;97172.53;5073632;28;19963;-75
2021/10/18 04:48:45;;;;;;;;;;;;;;;7.03;87.98;97178.06;5073848;28;19976;-75
2021/10/18 04:51:11;;;;;;;;;;;;;;;7.05;88.24;97188.34;5073340;28;19949;-76
2021/10/18 04:53:37;;;;;;;;;;;;;;;7.05;88.65;97180.50;5072333;28;20335;-75
2021/10/18 04:56:03;;;;;;;;;;;;;;;7.03;88.38;97183.28;5073483;28;19955;-75
2021/10/18 04:58:29;;;;;;;;;;;;;;;7.04;88.34;97178.91;5073496;28;20053;-75
2021/10/18 05:00:56;;;;;;;;;;;;;;;7.05;88.29;97185.72;5073985;28;19953;-75
2021/10/18 05:03:23;;;;;;;;;;;;;;;7.06;88.41;97182.94;5073404;28;19967;-75
2021/10/18 05:05:48;;;;;;;;;;;;;;;7.07;88.08;97183.75;5073104;28;19962;-75
2021/10/18 05:08:14;;;;;;;;;;;;;;;7.06;88.13;97176.94;5072098;28;19982;-75
2021/10/18 05:10:41;;;;;;;;;;;;;;;7.05;87.78;97185.72;5073279;28;19952;-75
2021/10/18 05:13:09;;;;;;;;;;;;;;;7.04;88.23;97187.53;5073533;28;19956;-75
2021/10/18 05:15:35;;;;;;;;;;;;;;;7.02;88.25;97181.69;5073399;28;19958;-74
2021/10/18 05:18:01;;;;;;;;;;;;;;;7.04;88.20;97182.31;5073586;28;19956;-74
2021/10/18 05:20:28;;;;;;;;;;;;;;;7.03;88.01;97182.47;5073310;28;19967;-75
2021/10/18 05:22:53;;;;;;;;;;;;;;;7.01;88.02;97193.09;5072278;28;20434;-75
2021/10/18 05:25:19;;;;;;;;;;;;;;;7.01;88.13;97192.28;5073394;28;19965;-74
2021/10/18 05:27:45;;;;;;;;;;;;;;;7.00;87.99;97193.28;5073581;28;20062;-75
2021/10/18 05:30:12;;;;;;;;;;;;;;;6.99;87.80;97192.47;5073272;28;20051;-75
2021/10/18 05:32:38;;;;;;;;;;;;;;;6.97;87.93;97184.03;5073355;28;19951;-74
2021/10/18 05:35:05;;;;;;;;;;;;;;;6.97;87.96;97188.41;5073206;28;19953;-75
2021/10/18 05:37:31;;;;;;;;;;;;;;;6.95;87.91;97193.81;5073494;28;20309;-74
2021/10/18 05:39:57;;;;;;;;;;;;;;;6.93;87.81;97194.97;5073155;28;19956;-74
2021/10/18 05:42:23;;;;;;;;;;;;;;;6.91;88.16;97198.56;5073468;28;19961;-74
2021/10/18 05:44:49;;;;;;;;;;;;;;;6.86;88.14;97202.69;5073232;28;20314;-74
2021/10/18 05:47:15;;;;;;;;;;;;;;;6.84;88.31;97213.28;5072066;28;19951;-75
2021/10/18 05:49:41;;;;;;;;;;;;;;;6.82;87.83;97212.63;5072912;28;19972;-74
2021/10/18 05:52:07;;;;;;;;;;;;;;;6.84;88.17;97215.06;5073104;28;19982;-74
2021/10/18 05:54:33;;;;;;;;;;;;;;;6.84;88.00;97215.88;5072850;28;19985;-74
2021/10/18 05:56:59;;;;;;;;;;;;;;;6.81;87.90;97221.47;5073245;28;20400;-75
2021/10/18 05:59:24;;;;;;;;;;;;;;;6.79;88.06;97223.44;5073051;28;19967;-75
2021/10/18 06:01:50;;;;;;;;;;;;;;;6.79;88.26;97223.44;5073158;28;20400;-76
2021/10/18 06:04:16;;;;;;;;;;;;;;;6.79;88.38;97227.84;5072941;28;19947;-78
2021/10/18 06:06:42;;;;;;;;;;;;;;;6.79;88.31;97225.22;5073250;28;20306;-76
2021/10/18 06:09:10;;;;;;;;;;;;;;;6.79;88.29;97233.84;5072727;28;19977;-76
2021/10/18 06:11:36;;;;;;;;;;;;;;;6.78;88.50;97234.03;5072913;28;20423;-77
2021/10/18 06:14:01;;;;;;;;;;;;;;;6.74;88.43;97233.56;5072862;28;20051;-75
2021/10/18 06:16:27;;;;;;;;;;;;;;;6.70;88.56;97232.31;5073451;28;20340;-75
2021/10/18 06:18:53;;;;;;;;;;;;;;;6.67;88.56;97243.06;5076499;28;20435;-76
2021/10/18 06:21:19;;;;;;;;;;;;;;;6.63;88.51;97245.19;5076633;28;19959;-75
2021/10/18 06:23:45;;;;;;;;;;;;;;;6.61;88.70;97246.34;5076221;28;20007;-75
2021/10/18 06:26:12;;;;;;;;;;;;;;;6.59;88.66;97246.53;5076161;28;19952;-75
2021/10/18 06:28:41;;;;;;;;;;;;;;;6.60;89.04;97253.38;5076121;28;19954;-75
2021/10/18 06:31:07;;;;;;;;;;;;;;;6.60;88.69;97255.97;5076417;28;19953;-75
2021/10/18 06:33:34;;;;;;;;;;;;;;;6.60;88.91;97257.78;5075942;28;19957;-75
2021/10/18 06:36:01;;;;;;;;;;;;;;;6.60;88.91;97260.38;5076387;28;19961;-75
2021/10/18 06:38:27;;;;;;;;;;;;;;;6.59;89.03;97269.97;5076045;28;20440;-75
2021/10/18 06:40:53;;;;;;;;;;;;;;;6.58;88.82;97268.38;5076248;28;19958;-75
2021/10/18 06:43:20;;;;;;;;;;;;;;;6.59;88.88;97261.34;5076094;28;19965;-75
2021/10/18 06:45:47;;;;;;;;;;;;;;;6.60;89.19;97270.81;5075912;28;19957;-75
2021/10/18 06:48:14;;;;;;;;;;;;;;;6.61;88.91;97265.41;5075888;28;20413;-75
2021/10/18 06:50:41;;;;;;;;;;;;;;;6.62;88.57;97267.03;5076060;28;19956;-75
2021/10/18 06:53:12;;;;;;;;;;;;;;;6.60;88.72;97268.19;5076297;28;19982;-75
2021/10/18 06:55:38;;;;;;;;;;;;;;;6.60;88.56;97269.00;5075758;28;19958;-75
2021/10/18 06:58:06;;;;;;;;;;;;;;;6.60;88.27;97276.03;5075668;28;20322;-75
2021/10/18 07:00:31;;;;;;;;;;;;;;;6.62;88.43;97280.06;5075483;28;19967;-75
2021/10/18 07:02:57;;;;;;;;;;;;;;;6.63;88.32;97286.09;5076087;28;19970;-75
2021/10/18 07:05:23;;;;;;;;;;;;;;;6.91;100.00;97286.41;5075608;28;20492;-75
2021/10/18 07:07:49;;;;;;;;;;;;;;;7.19;97.03;97286.69;5075600;28;20036;-75
2021/10/18 07:10:15;;;;;;;;;;;;;;;7.21;89.30;97284.72;5075485;28;19977;-75
2021/10/18 07:12:41;;;;;;;;;;;;;;;7.15;87.58;97285.41;5075696;28;20401;-75
2021/10/18 07:15:07;;;;;;;;;;;;;;;7.05;87.59;97296.06;5075069;28;19954;-75
2021/10/18 07:17:35;;;;;;;;;;;;;;;6.98;87.76;97295.16;5075743;28;19963;-75
2021/10/18 07:20:03;;;;;;;;;;;;;;;6.94;87.81;97288.66;5075371;28;19961;-75
2021/10/18 07:22:41;;;;;;;;;;;;;;;6.91;87.96;97289.03;5075508;28;19960;-75
2021/10/18 07:25:07;;;;;;;;;;;;;;;6.89;87.98;97285.78;5061700;28;19950;-75
2021/10/18 07:27:33;;;;;;;;;;;;;;;6.89;88.15;97285.78;5074608;28;20324;-76
2021/10/18 07:29:59;;;;;;;;;;;;;;;6.87;88.22;97287.75;5075020;28;19967;-75
2021/10/18 07:32:25;;;;;;;;;;;;;;;6.90;88.28;97287.38;5075282;28;19958;-77
2021/10/18 07:34:51;;;;;;;;;;;;;;;6.91;88.08;97295.03;5075481;28;19953;-75
2021/10/18 07:37:23;;;;;;;;;;;;;;;6.94;88.34;97299.09;5075155;28;19965;-75
2021/10/18 07:39:49;;;;;;;;;;;;;;;6.97;88.41;97298.75;5075111;28;19952;-75
2021/10/18 07:42:15;;;;;;;;;;;;;;;6.99;88.42;97298.56;5074953;28;19961;-76
2021/10/18 07:44:41;;;;;;;;;;;;;;;6.95;88.47;97305.94;5074653;28;19976;-75
2021/10/18 07:47:07;;;;;;;;;;;;;;;6.89;88.49;97307.44;5074631;28;19977;-75
2021/10/18 07:49:36;;;;;;;;;;;;;;;6.83;89.40;97315.94;5074668;28;19975;-76
2021/10/18 07:52:03;;;;;;;;;;;;;;;6.83;89.52;97321.16;5074610;28;19957;-75
2021/10/18 07:54:30;;;;;;;;;;;;;;;6.85;90.04;97315.78;5074409;28;19972;-76
2021/10/18 07:56:56;;;;;;;;;;;;;;;6.89;89.91;97319.69;5074468;28;19970;-75
2021/10/18 07:59:22;;;;;;;;;;;;;;;6.94;89.97;97329.59;5075211;28;19964;-75
2021/10/18 08:01:48;;;;;;;;;;;;;;;6.99;89.81;97317.66;5073446;28;19953;-75
2021/10/18 08:04:14;;;;;;;;;;;;;;;7.01;89.43;97326.09;5074440;28;19946;-75
2021/10/18 08:06:40;;;;;;;;;;;;;;;7.01;89.34;97325.28;5074461;28;19959;-75
2021/10/18 08:09:10;;;;;;;;;;;;;;;7.04;89.89;97324.94;5074172;28;19996;-76
2021/10/18 08:11:36;;;;;;;;;;;;;;;7.02;89.66;97322.50;5074265;28;20430;-76
2021/10/18 08:14:02;;;;;;;;;;;;;;;7.07;89.60;97322.78;5074301;28;20450;-76
2021/10/18 08:16:28;;;;;;;;;;;;;;;7.13;89.52;97321.28;5074310;28;19956;-75
2021/10/18 08:18:54;;;;;;;;;;;;;;;7.15;89.32;97316.72;5074436;28;19959;-75
2021/10/18 08:21:22;;;;;;;;;;;;;;;7.17;89.50;97312.13;5074170;28;19955;-75
2021/10/18 08:23:48;;;;;;;;;;;;;;;7.15;89.07;97311.50;5074054;28;20522;-75
2021/10/18 08:26:14;;;;;;;;;;;;;;;7.18;89.28;97318.16;5073826;28;19965;-76
2021/10/18 08:28:40;;;;;;;;;;;;;;;7.20;89.31;97317.03;5073764;28;19995;-74
2021/10/18 08:31:06;;;;;;;;;;;;;;;7.23;89.22;97328.91;5073792;28;19970;-74
2021/10/18 08:33:32;;;;;;;;;;;;;;;7.26;89.05;97320.72;5073913;28;19988;-75
2021/10/18 08:35:58;;;;;;;;;;;;;;;7.26;89.07;97318.91;5074037;28;19966;-76
2021/10/18 08:38:46;;;;;;;;;;;;;;;7.30;89.36;97316.75;5073799;28;20323;-75
2021/10/18 08:41:35;;;;;;;;;;;;;;;7.33;89.09;97316.44;5073661;28;19964;-76
2021/10/18 08:44:14;;;;;;;;;;;;;;;7.30;89.16;97320.16;5073884;28;19964;-78
2021/10/18 08:46:41;;;;;;;;;;;;;;;7.34;89.45;97325.06;5073689;28;19968;-79
2021/10/18 08:49:07;;;;;;;;;;;;;;;7.38;88.99;97329.75;5073687;28;19972;-78
2021/10/18 08:51:33;;;;;;;;;;;;;;;7.37;88.60;97330.75;5073667;28;19965;-75
2021/10/18 08:54:00;;;;;;;;;;;;;;;7.35;88.27;97330.09;5073825;28;20345;-75
2021/10/18 08:56:26;;;;;;;;;;;;;;;7.32;88.66;97333.06;5073668;28;19959;-77
2021/10/18 08:58:51;;;;;;;;;;;;;;;7.36;88.96;97338.75;5073527;28;19962;-75
2021/10/18 09:01:17;;;;;;;;;;;;;;;7.27;88.49;97332.78;5073459;28;20072;-75
2021/10/18 09:03:44;;;;;;;;;;;;;;;7.20;89.83;97332.66;5074041;28;20412;-77
2021/10/18 09:06:23;;;;;;;;;;;;;;;7.18;90.05;97332.03;5073914;28;20394;-75
2021/10/18 09:08:55;;;;;;;;;;;;;;;7.25;89.76;97340.78;5073523;28;19947;-77
2021/10/18 09:11:22;;;;;;;;;;;;;;;7.34;89.85;97335.50;5073589;28;19965;-77
2021/10/18 09:13:51;;;;;;;;;;;;;;;7.41;90.28;97344.22;5073319;28;19953;-76
2021/10/18 09:16:28;;;;;;;;;;;;;;;7.45;89.48;97343.69;5073439;28;20288;-76
2021/10/18 09:19:00;;;;;;;;;;;;;;;7.43;88.91;97350.09;5073300;28;19959;-75
2021/10/18 09:21:38;;;;;;;;;;;;;;;7.45;89.16;97350.72;5073528;28;19955;-75
2021/10/18 09:24:06;;;;;;;;;;;;;;;7.48;89.12;97347.78;5073220;28;20418;-76
2021/10/18 09:26:32;;;;;;;;;;;;;;;7.46;89.15;97344.53;5073643;28;20324;-75
2021/10/18 09:29:06;;;;;;;;;;;;;;;7.43;89.21;97350.09;5073162;28;19962;-74
2021/10/18 09:31:32;;;;;;;;;;;;;;;7.40;89.53;97340.81;5073693;28;19967;-74
2021/10/18 09:34:10;;;;;;;;;;;;;;;7.34;89.55;97335.50;5073206;28;19968;-76
2021/10/18 09:36:37;;;;;;;;;;;;;;;7.27;91.09;97341.41;5073152;28;19953;-77
2021/10/18 09:39:29;;;;;;;;;;;;;;;7.22;90.57;97338.50;5073362;28;19958;-77
2021/10/18 09:42:03;;;;;;;;;;;;;;;7.21;91.11;97336.09;5071795;28;19958;-76
2021/10/18 10:54:12;;;;;;;;;;;;;;;9.41;80.89;97329.31;5076066;28;19972;-77
2021/10/18 10:56:43;;;;;;;;;;;;;;;9.30;81.54;97328.00;5076000;28;19955;-76
2021/10/18 10:59:18;;;;;;;;;;;;;;;9.27;81.50;97322.34;5076117;28;19966;-76
2021/10/18 11:01:50;;;;;;;;;;;;;;;9.37;82.71;97320.22;5060518;28;20355;-77
2021/10/18 11:04:31;;;;;;;;;;;;;;;9.63;82.88;97324.03;5075520;28;19951;-77
2021/10/18 11:06:58;;;;;;;;;;;;;;;9.93;82.27;97316.78;5075543;28;19949;-76
2021/10/18 11:09:45;;;;;;;;;;;;;;;10.15;80.81;97313.09;5075580;28;19981;-77
2021/10/18 11:12:17;;;;;;;;;;;;;;;10.33;80.19;97306.53;5062676;28;19949;-77
2021/10/18 11:14:58;;;;;;;;;;;;;;;10.51;79.73;97308.66;5075295;28;19954;-77
2021/10/18 11:17:24;;;;;;;;;;;;;;;10.59;77.92;97308.47;5075361;28;19975;-76
2021/10/18 11:19:51;;;;;;;;;;;;;;;10.71;78.37;97309.53;5075347;28;19961;-77
2021/10/18 11:22:23;;;;;;;;;;;;;;;10.87;77.72;97297.84;5075252;28;20441;-76
2021/10/18 11:24:49;;;;;;;;;;;;;;;10.96;77.40;97293.22;5075224;28;20329;-76
2021/10/18 11:27:22;;;;;;;;;;;;;;;11.01;77.02;97296.06;5075294;28;19957;-77
2021/10/18 11:29:54;;;;;;;;;;;;;;;11.07;76.11;97292.66;5074918;28;19993;-76
2021/10/18 11:32:20;;;;;;;;;;;;;;;11.13;73.87;97283.19;5075299;28;20425;-77
2021/10/18 11:34:46;;;;;;;;;;;;;;;11.05;73.33;97283.38;5074881;28;19959;-77
2021/10/18 11:37:12;;;;;;;;;;;;;;;11.03;75.06;97280.13;5075065;28;20038;-77
2021/10/18 11:39:38;;;;;;;;;;;;;;;11.10;74.18;97273.88;5074831;28;19962;-77
2021/10/18 11:42:08;;;;;;;;;;;;;;;11.18;73.97;97270.25;5073877;28;20432;-77
2021/10/18 11:45:03;;;;;;;;;;;;;;;11.24;72.67;97274.69;5074731;28;19966;-77
2021/10/18 11:47:29;;;;;;;;;;;;;;;11.29;72.98;97266.22;5069225;28;20340;-76
2021/10/18 11:50:21;;;;;;;;;;;;;;;11.32;71.74;97271.06;5074389;28;20005;-77
2021/10/18 11:52:47;;;;;;;;;;;;;;;11.26;73.08;97274.50;5073390;28;20003;-76
2021/10/18 11:55:15;;;;;;;;;;;;;;;11.31;73.70;97266.81;5074636;28;19984;-77
2021/10/18 11:57:43;;;;;;;;;;;;;;;11.38;71.45;97268.44;5074551;28;19965;-76
2021/10/18 12:00:14;;;;;;;;;;;;;;;11.45;72.43;97267.63;5074520;28;19979;-77
2021/10/18 12:02:45;;;;;;;;;;;;;;;11.50;73.44;97259.94;5074277;28;19964;-77
2021/10/18 12:05:11;;;;;;;;;;;;;;;11.44;69.26;97240.53;5074531;28;20413;-77
2021/10/18 12:07:41;;;;;;;;;;;;;;;11.47;70.00;97245.41;5073954;28;19954;-77
2021/10/18 12:10:12;;;;;;;;;;;;;;;11.50;73.56;97252.84;5074416;28;19974;-77
2021/10/18 12:12:38;;;;;;;;;;;;;;;11.58;74.04;97243.97;5074226;28;19953;-77
2021/10/18 12:15:05;;;;;;;;;;;;;;;11.65;71.83;97231.63;5073876;28;20071;-78
2021/10/18 12:17:34;;;;;;;;;;;;;;;11.72;70.64;97229.81;5074255;28;19960;-77
2021/10/18 12:20:04;;;;;;;;;;;;;;;11.75;70.72;97237.25;5073762;28;19966;-77
2021/10/18 12:22:30;;;;;;;;;;;;;;;11.75;69.92;97233.84;5074165;28;19962;-77
2021/10/18 12:25:00;;;;;;;;;;;;;;;11.79;70.64;97238.47;5074007;28;19959;-77
2021/10/18 12:27:26;;;;;;;;;;;;;;;11.90;71.08;97236.25;5074291;28;20296;-78
2021/10/18 12:29:52;;;;;;;;;;;;;;;11.98;67.75;97215.00;5074033;28;19970;-77
2021/10/18 12:32:18;;;;;;;;;;;;;;;12.11;68.11;97220.19;5073872;28;20290;-77
2021/10/18 12:34:44;;;;;;;;;;;;;;;12.17;68.92;97216.72;5073696;28;19971;-77
2021/10/18 12:37:11;;;;;;;;;;;;;;;12.23;67.07;97220.38;5073931;28;19947;-77
2021/10/18 12:39:55;;;;;;;;;;;;;;;12.32;68.36;97216.47;5073912;28;19967;-77
2021/10/18 12:42:21;;;;;;;;;;;;;;;12.43;69.50;97204.50;5073820;28;20437;-77
2021/10/18 12:44:49;;;;;;;;;;;;;;;12.57;69.01;97208.66;5073681;28;20317;-77
2021/10/18 12:47:20;;;;;;;;;;;;;;;12.68;67.93;97204.56;5073798;28;19949;-77
2021/10/18 12:49:54;;;;;;;;;;;;;;;12.78;68.76;97204.06;5073621;28;19971;-77
2021/10/18 12:52:49;;;;;;;;;;;;;;;12.87;67.62;97207.25;5060057;28;19977;-78
2021/10/18 12:55:19;;;;;;;;;;;;;;;12.95;66.30;97205.16;5068846;28;19980;-76
2021/10/18 12:57:48;;;;;;;;;;;;;;;13.04;69.64;97215.41;5072927;28;20515;-77
2021/10/18 13:00:20;;;;;;;;;;;;;;;13.09;67.66;97203.22;5074020;28;20015;-77
2021/10/18 13:02:46;;;;;;;;;;;;;;;13.12;66.93;97202.81;5073681;28;19962;-77
2021/10/18 13:05:19;;;;;;;;;;;;;;;13.20;66.72;97209.63;5073704;28;19952;-77
2021/10/18 13:07:53;;;;;;;;;;;;;;;13.22;64.32;97193.63;5073437;28;19969;-77
2021/10/18 13:10:20;;;;;;;;;;;;;;;13.27;66.69;97210.41;5073559;28;19961;-77
2021/10/18 13:12:46;;;;;;;;;;;;;;;13.35;66.33;97196.94;5073725;28;19964;-76
2021/10/18 13:15:15;;;;;;;;;;;;;;;13.46;64.40;97184.09;5073381;28;19954;-77
2021/10/18 13:17:41;;;;;;;;;;;;;;;13.58;65.13;97196.31;5073294;28;19951;-77
2021/10/18 13:20:07;;;;;;;;;;;;;;;13.63;65.35;97202.78;5073254;28;19959;-77
2021/10/18 13:22:34;;;;;;;;;;;;;;;13.72;66.57;97198.84;5073515;28;20399;-77
2021/10/18 13:25:00;;;;;;;;;;;;;;;13.77;63.55;97180.53;5073756;28;20430;-77
2021/10/18 13:27:26;;;;;;;;;;;;;;;13.73;62.13;97159.09;5077709;28;19961;-77
2021/10/18 13:29:52;;;;;;;;;;;;;;;13.75;63.55;97172.84;5077181;28;19961;-77
2021/10/18 13:32:18;;;;;;;;;;;;;;;13.86;64.81;97178.41;5077194;28;19960;-77
2021/10/18 13:34:44;;;;;;;;;;;;;;;13.96;65.27;97176.88;5076143;28;19959;-77
2021/10/18 13:37:11;;;;;;;;;;;;;;;14.02;66.01;97177.81;5067782;28;19953;-77
2021/10/18 13:39:38;;;;;;;;;;;;;;;14.01;63.85;97171.72;5077375;28;20036;-77
2021/10/18 13:42:04;;;;;;;;;;;;;;;14.06;64.44;97184.25;5077383;28;20326;-77
2021/10/18 13:44:31;;;;;;;;;;;;;;;14.08;64.26;97187.47;5077154;28;19952;-77
2021/10/18 13:46:57;;;;;;;;;;;;;;;14.04;62.42;97161.75;5077121;28;19967;-77
2021/10/18 13:49:23;;;;;;;;;;;;;;;14.04;63.52;97178.38;5077148;28;19957;-76
2021/10/18 13:51:49;;;;;;;;;;;;;;;14.10;61.97;97166.94;5076972;28;19974;-77
2021/10/18 13:54:15;;;;;;;;;;;;;;;14.13;63.40;97185.00;5076816;28;20075;-77
2021/10/18 13:56:42;;;;;;;;;;;;;;;14.11;64.46;97191.50;5076964;28;20342;-77
2021/10/18 13:59:08;;;;;;;;;;;;;;;14.12;64.60;97190.47;5076664;28;20321;-77
2021/10/18 14:01:34;;;;;;;;;;;;;;;14.10;63.53;97188.06;5076608;28;19954;-77
2021/10/18 14:04:00;;;;;;;;;;;;;;;14.13;64.09;97194.72;5076695;28;19951;-77
2021/10/18 14:06:26;;;;;;;;;;;;;;;14.14;61.83;97178.66;5076733;28;20003;-76